Time;durP1;ratioP1;P1;durP2;ratioP2;P2;SDS_P1;SDS_P2;PMS_P1;PMS_P2;Temp;Humidity;BMP_temperature;BMP_pressure;BME280_temperature;BME280_humidity;BME280_pressure;Samples;Min_cycle;Max_cycle;Signal;HPM_P1;HPM_P2
2021/06/01 00:00:26;;;;;;;11.68;5.57;;;;;;;10.59;nan;102099.09;5061650;28;20028;-46
2021/06/01 00:02:51;;;;;;;8.60;5.43;;;;;;;10.50;nan;102090.50;5062510;28;20522;-45
2021/06/01 00:05:17;;;;;;;12.77;5.72;;;;;;;10.45;nan;102092.19;5063820;28;20024;-46
2021/06/01 00:07:42;;;;;;;7.45;5.13;;;;;;;10.38;nan;102097.56;5064634;28;20132;-45
2021/06/01 00:10:08;;;;;;;8.60;5.63;;;;;;;10.34;nan;102099.03;5061825;28;20065;-44
2021/06/01 00:12:35;;;;;;;11.25;6.13;;;;;;;10.35;nan;102092.63;5061145;28;20024;-45
2021/06/01 00:15:00;;;;;;;8.95;5.68;;;;;;;10.27;nan;102084.84;5062181;28;20024;-44
2021/06/01 00:17:26;;;;;;;9.07;6.03;;;;;;;10.30;nan;102073.69;5059651;28;20180;-45
2021/06/01 00:19:53;;;;;;;9.88;6.50;;;;;;;10.25;nan;102081.56;5064503;28;20382;-45
2021/06/01 00:22:19;;;;;;;13.13;6.65;;;;;;;10.23;nan;102087.13;5066025;28;20118;-45
2021/06/01 00:24:44;;;;;;;19.35;7.70;;;;;;;10.17;nan;102089.78;5065612;28;20143;-45
2021/06/01 00:27:10;;;;;;;21.50;6.95;;;;;;;10.12;nan;102084.25;5062742;28;20403;-44
2021/06/01 00:29:35;;;;;;;16.15;7.07;;;;;;;10.04;nan;102087.97;5063657;28;20031;-47
2021/06/01 00:32:01;;;;;;;13.63;6.60;;;;;;;9.98;nan;102081.63;5063839;28;20039;-44
2021/06/01 00:34:26;;;;;;;10.35;7.45;;;;;;;9.98;nan;102095.00;5062726;28;20020;-45
2021/06/01 00:36:52;;;;;;;11.88;6.65;;;;;;;9.95;nan;102086.59;5062359;28;20039;-44
2021/06/01 00:39:17;;;;;;;11.90;6.82;;;;;;;9.93;nan;102077.94;5060981;28;20071;-45
2021/06/01 00:41:43;;;;;;;11.43;6.72;;;;;;;9.94;nan;102085.75;5063242;28;20628;-45
2021/06/01 00:44:08;;;;;;;12.27;7.32;;;;;;;9.90;nan;102084.53;5068555;28;20012;-45
2021/06/01 00:46:34;;;;;;;14.38;6.97;;;;;;;9.88;nan;102081.25;5070971;28;20048;-44
2021/06/01 00:49:00;;;;;;;16.08;6.75;;;;;;;9.85;nan;102084.34;5067382;28;20020;-44
2021/06/01 00:51:25;;;;;;;13.63;6.65;;;;;;;9.84;nan;102073.84;5066691;28;20017;-44
2021/06/01 00:53:51;;;;;;;10.57;7.07;;;;;;;9.78;nan;102072.84;5068688;28;20498;-44
2021/06/01 00:56:16;;;;;;;12.60;7.93;;;;;;;9.83;nan;102067.66;5068540;28;20476;-44
2021/06/01 00:58:42;;;;;;;15.68;7.72;;;;;;;9.90;nan;102067.66;5068256;28;20062;-46
2021/06/01 01:03:35;;;;;;;15.20;8.35;;;;;;;9.77;nan;102076.53;5067538;28;20032;-44
2021/06/01 01:06:08;;;;;;;11.30;7.45;;;;;;;9.81;nan;102068.91;5068440;28;20086;-45
2021/06/01 01:08:50;;;;;;;13.98;7.28;;;;;;;9.77;nan;102067.69;5069556;28;20033;-45
2021/06/01 01:11:55;;;;;;;8.90;6.63;;;;;;;9.71;nan;102074.72;5065164;28;20127;-45
2021/06/01 01:14:31;;;;;;;11.83;6.77;;;;;;;9.72;nan;102071.00;4966097;28;20389;-45
2021/06/01 01:17:11;;;;;;;11.13;7.15;;;;;;;9.63;nan;102067.72;5053184;28;20734;-45
2021/06/01 01:19:42;;;;;;;16.50;7.45;;;;;;;9.59;nan;102068.34;5067189;28;20020;-44
2021/06/01 01:22:09;;;;;;;12.65;7.10;;;;;;;9.59;nan;102076.38;5067158;28;20028;-45
2021/06/01 01:24:49;;;;;;;10.60;6.43;;;;;;;9.55;nan;102070.63;5068019;28;20175;-45
2021/06/01 01:27:44;;;;;;;11.98;6.75;;;;;;;9.50;nan;102069.59;5067053;28;20034;-46
2021/06/01 01:30:14;;;;;;;12.57;6.72;;;;;;;9.35;nan;102068.00;4968778;28;20043;-45
2021/06/01 01:32:58;;;;;;;12.77;6.88;;;;;;;9.29;nan;102071.47;5066251;28;20028;-44
2021/06/01 01:35:30;;;;;;;8.13;6.28;;;;;;;9.27;nan;102068.19;5063854;28;20105;-46
2021/06/01 01:38:00;;;;;;;12.38;6.20;;;;;;;9.22;nan;102072.53;5067388;28;20070;-45
2021/06/01 01:40:28;;;;;;;9.55;7.13;;;;;;;9.23;nan;102058.94;5066843;28;20103;-45
2021/06/01 01:43:01;;;;;;;14.27;7.80;;;;;;;9.20;nan;102056.69;5062768;28;20371;-46
2021/06/01 01:45:33;;;;;;;14.43;7.75;;;;;;;9.20;nan;102058.53;5068012;28;20025;-45
2021/06/01 01:50:48;;;;;;;14.18;8.07;;;;;;;9.15;nan;102058.31;5066394;28;20481;-45
2021/06/01 01:53:18;;;;;;;12.90;8.10;;;;;;;9.14;nan;102052.16;5064008;28;20230;-44
2021/06/01 01:55:48;;;;;;;15.43;8.73;;;;;;;9.11;nan;102052.56;5063751;28;20028;-45
2021/06/01 01:58:17;;;;;;;13.10;8.73;;;;;;;9.10;nan;102056.28;5048074;28;20078;-44
2021/06/01 02:00:43;;;;;;;11.90;7.65;;;;;;;9.09;nan;102060.78;5063876;28;20036;-45
2021/06/01 02:03:09;;;;;;;10.55;7.43;;;;;;;9.06;nan;102053.19;5063967;28;20108;-44
2021/06/01 02:05:36;;;;;;;12.88;7.40;;;;;;;9.07;nan;102056.69;5067374;28;20139;-44
2021/06/01 02:08:02;;;;;;;15.50;8.55;;;;;;;9.07;nan;102054.00;5067747;28;20489;-47
2021/06/01 02:10:29;;;;;;;14.63;9.18;;;;;;;9.05;nan;102056.06;5068637;28;20040;-45
2021/06/01 02:12:54;;;;;;;17.15;8.27;;;;;;;9.03;nan;102052.78;5064763;28;20032;-44
2021/06/01 02:15:20;;;;;;;12.02;7.57;;;;;;;9.03;nan;102053.59;5065301;28;20393;-46
2021/06/01 02:17:46;;;;;;;16.20;8.10;;;;;;;9.08;nan;102045.78;5064889;28;20028;-44
2021/06/01 02:20:14;;;;;;;14.63;7.57;;;;;;;9.19;nan;102047.03;5047558;28;20032;-44
2021/06/01 02:25:39;;;;;;;13.98;8.32;;;;;;;9.07;nan;102052.16;5066383;28;20040;-44
2021/06/01 02:28:31;;;;;;;14.65;7.95;;;;;;;8.93;nan;102042.50;5065491;28;20032;-44
2021/06/01 02:31:03;;;;;;;15.85;7.40;;;;;;;8.94;nan;102049.47;5065835;28;20618;-45
2021/06/01 02:33:31;;;;;;;12.55;6.68;;;;;;;8.88;nan;102038.78;5062982;28;20040;-45
2021/06/01 02:35:59;;;;;;;10.82;6.05;;;;;;;8.81;nan;102044.16;5067251;28;20016;-44
2021/06/01 02:38:28;;;;;;;12.02;6.28;;;;;;;8.78;nan;102042.69;5063783;28;20111;-47
2021/06/01 02:40:54;;;;;;;17.52;7.70;;;;;;;8.72;nan;102048.84;5064395;28;20048;-45
2021/06/01 02:43:20;;;;;;;11.40;6.30;;;;;;;8.70;nan;102048.25;5064541;28;20078;-45
2021/06/01 02:45:46;;;;;;;19.55;8.38;;;;;;;8.67;nan;102045.97;5063490;28;20028;-45
2021/06/01 02:48:14;;;;;;;13.63;7.53;;;;;;;8.65;nan;102045.38;5047153;28;20024;-45
2021/06/01 02:50:45;;;;;;;16.45;8.57;;;;;;;8.65;nan;102053.38;5063592;28;20024;-44
2021/06/01 02:53:12;;;;;;;15.45;8.43;;;;;;;8.65;nan;102041.88;5064467;28;20060;-45
2021/06/01 02:55:38;;;;;;;14.43;7.53;;;;;;;8.64;nan;102043.72;5066377;28;20106;-44
2021/06/01 02:58:11;;;;;;;10.82;6.15;;;;;;;8.65;nan;102045.38;5065600;28;20324;-44
2021/06/01 03:00:38;;;;;;;9.35;6.43;;;;;;;8.68;nan;102031.59;5065980;28;20036;-45
2021/06/01 03:03:09;;;;;;;13.95;7.20;;;;;;;8.70;nan;102039.41;5062344;28;20032;-45
2021/06/01 03:05:34;;;;;;;14.63;7.35;;;;;;;8.70;nan;102034.06;5065844;28;20422;-45
2021/06/01 03:08:21;;;;;;;11.18;6.97;;;;;;;8.64;nan;102038.38;5067431;28;20173;-47
2021/06/01 03:10:46;;;;;;;13.65;8.05;;;;;;;8.68;nan;102036.94;5064385;28;20024;-45
2021/06/01 03:13:12;;;;;;;14.63;8.00;;;;;;;8.69;nan;102033.22;5065010;28;20052;-45
2021/06/01 03:15:37;;;;;;;18.77;8.75;;;;;;;8.70;nan;102021.50;5063542;28;20028;-45
2021/06/01 03:18:03;;;;;;;26.75;9.00;;;;;;;8.73;nan;102018.44;5060629;28;20051;-45
2021/06/01 03:20:29;;;;;;;13.15;8.10;;;;;;;8.75;nan;102023.56;5066462;28;20077;-45
2021/06/01 03:22:54;;;;;;;17.08;8.27;;;;;;;8.74;nan;102024.59;5069031;28;20032;-45
2021/06/01 03:25:20;;;;;;;13.60;7.22;;;;;;;8.81;nan;102025.44;5065291;28;20107;-44
2021/06/01 03:27:47;;;;;;;15.85;8.57;;;;;;;8.86;nan;102019.47;5064120;28;20060;-45
2021/06/01 03:30:14;;;;;;;14.10;8.63;;;;;;;8.89;nan;102019.06;5086780;22;20056;-85
2021/06/01 03:32:40;;;;;;;12.18;7.05;;;;;;;8.91;nan;102020.50;5039348;28;20507;-86
2021/06/01 03:35:13;;;;;;;20.42;7.00;;;;;;;8.95;nan;102026.25;5058352;28;20032;-85
2021/06/01 03:37:38;;;;;;;11.90;7.03;;;;;;;9.01;nan;102023.59;5050416;28;20028;-85
2021/06/01 03:40:05;;;;;;;11.55;7.07;;;;;;;9.10;nan;102018.84;5043981;28;20115;-85
2021/06/01 03:42:30;;;;;;;11.25;7.32;;;;;;;9.19;nan;102016.78;5057381;28;20029;-85
2021/06/01 03:44:56;;;;;;;9.00;6.07;;;;;;;9.26;nan;102018.41;5044878;28;20078;-84
2021/06/01 03:47:21;;;;;;;13.48;6.68;;;;;;;9.36;nan;102021.50;5053759;28;20024;-84
2021/06/01 03:49:47;;;;;;;12.45;7.88;;;;;;;9.47;nan;102025.34;5043287;28;20371;-85
2021/06/01 03:52:12;;;;;;;11.90;7.47;;;;;;;9.57;nan;102024.94;5071303;28;20023;-85
2021/06/01 03:54:39;;;;;;;12.00;8.07;;;;;;;9.66;nan;102023.66;5051165;28;20016;-86
2021/06/01 03:57:05;;;;;;;14.40;8.05;;;;;;;9.74;nan;102031.47;5057096;28;20024;-86
2021/06/01 03:59:41;;;;;;;16.38;8.80;;;;;;;9.80;nan;102024.44;5034675;28;20033;-87
2021/06/01 04:02:07;;;;;;;10.63;7.10;;;;;;;9.91;nan;102016.59;5065281;28;20028;-86
2021/06/01 04:04:34;;;;;;;13.77;7.65;;;;;;;10.04;nan;102021.03;5049732;28;20041;-87
2021/06/01 04:06:59;;;;;;;13.63;7.63;;;;;;;10.13;nan;102013.59;5053509;28;20024;-87
2021/06/01 04:09:25;;;;;;;12.80;7.90;;;;;;;10.26;nan;102018.91;5042956;28;20154;-88
2021/06/01 04:11:50;;;;;;;13.07;7.95;;;;;;;10.29;nan;102015.81;5048080;28;20028;-86
2021/06/01 04:14:18;;;;;;;12.70;7.45;;;;;;;10.45;nan;102017.16;5054721;28;20583;-85
2021/06/01 04:16:44;;;;;;;13.00;8.35;;;;;;;10.56;nan;102014.56;5050008;28;20033;-85
2021/06/01 04:19:10;;;;;;;11.65;7.60;;;;;;;10.65;nan;102017.84;5044635;28;20024;-88
2021/06/01 04:21:35;;;;;;;16.35;8.45;;;;;;;10.77;nan;102009.88;5037473;28;20075;-87
2021/06/01 04:24:01;;;;;;;13.35;7.82;;;;;;;10.89;nan;102013.50;5051985;28;20032;-87
2021/06/01 04:26:29;;;;;;;18.50;8.93;;;;;;;11.00;nan;102017.34;5047077;28;20109;-87
2021/06/01 04:28:55;;;;;;;14.07;8.18;;;;;;;11.07;nan;102024.28;5050451;28;20029;-87
2021/06/01 04:31:21;;;;;;;13.63;8.30;;;;;;;11.13;nan;102022.56;5052123;28;20398;-88
2021/06/01 04:33:47;;;;;;;16.52;8.50;;;;;;;11.18;nan;102028.94;5041939;28;20326;-86
2021/06/01 04:36:12;;;;;;;14.48;8.82;;;;;;;11.09;nan;102024.06;5043014;28;20037;-86
2021/06/01 04:38:38;;;;;;;13.23;7.85;;;;;;;11.25;nan;102022.69;5045357;28;20028;-86
2021/06/01 04:41:04;;;;;;;14.23;8.18;;;;;;;11.42;nan;102021.06;5040335;28;20025;-86
2021/06/01 04:43:29;;;;;;;16.27;9.23;;;;;;;11.58;nan;102025.84;5045831;28;20079;-86
2021/06/01 04:45:55;;;;;;;17.40;9.57;;;;;;;11.72;nan;102026.53;5038303;28;20059;-87
2021/06/01 04:48:21;;;;;;;16.23;9.50;;;;;;;11.83;nan;102027.66;5039947;28;20029;-86
2021/06/01 04:50:46;;;;;;;14.63;9.25;;;;;;;11.92;nan;102024.44;5040942;28;20040;-89
2021/06/01 04:53:12;;;;;;;14.90;7.93;;;;;;;12.02;nan;102029.28;5035036;28;20374;-87
2021/06/01 04:55:37;;;;;;;16.75;8.50;;;;;;;12.13;nan;102027.69;5035505;28;20141;-86
2021/06/01 04:58:03;;;;;;;13.63;8.02;;;;;;;12.23;nan;102023.44;5040661;28;20040;-87
2021/06/01 05:00:28;;;;;;;16.90;8.25;;;;;;;12.33;nan;102026.38;5035525;28;20040;-85
2021/06/01 05:02:54;;;;;;;16.30;8.60;;;;;;;12.43;nan;102030.38;5037513;28;20524;-86
2021/06/01 05:05:19;;;;;;;12.73;8.82;;;;;;;12.56;nan;102030.16;5039182;28;20024;-86
2021/06/01 05:07:45;;;;;;;17.83;10.52;;;;;;;12.67;nan;102026.69;5045740;28;20059;-86
2021/06/01 05:10:13;;;;;;;13.32;8.98;;;;;;;12.68;nan;102018.41;5040135;28;20311;-86
2021/06/01 05:12:39;;;;;;;18.65;10.02;;;;;;;12.80;nan;102010.38;5037725;28;20028;-86
2021/06/01 05:15:06;;;;;;;16.67;9.15;;;;;;;12.83;nan;102003.69;5039504;28;20498;-86
2021/06/01 05:17:32;;;;;;;13.88;9.40;;;;;;;12.79;nan;101994.47;5066422;28;20032;-88
2021/06/01 05:19:58;;;;;;;20.95;9.63;;;;;;;12.85;nan;101996.22;5034553;28;20479;-86
2021/06/01 05:22:23;;;;;;;15.88;9.73;;;;;;;12.93;nan;101999.38;5035612;28;20021;-88
2021/06/01 05:24:49;;;;;;;16.02;9.43;;;;;;;12.95;nan;101997.28;5056715;28;20586;-86
2021/06/01 05:27:14;;;;;;;18.65;10.30;;;;;;;13.05;nan;101995.88;5052353;28;20029;-86
2021/06/01 05:29:44;;;;;;;16.90;9.27;;;;;;;13.16;nan;101998.56;5037060;28;20032;-86
2021/06/01 05:35:03;;;;;;;16.83;10.30;;;;;;;13.52;nan;102008.28;5071414;28;20120;-86
2021/06/01 05:37:34;;;;;;;16.35;9.93;;;;;;;13.75;nan;102009.28;5051632;28;20042;-86
2021/06/01 05:40:00;;;;;;;18.13;10.77;;;;;;;13.88;nan;102006.31;5057291;28;20024;-86
2021/06/01 05:42:25;;;;;;;16.73;10.13;;;;;;;13.99;nan;102010.81;5039428;28;20023;-86
2021/06/01 05:44:51;;;;;;;17.02;10.13;;;;;;;14.17;nan;102007.13;5042815;28;20190;-86
2021/06/01 05:47:17;;;;;;;18.05;10.70;;;;;;;14.25;nan;102005.94;5039953;28;20017;-86
2021/06/01 05:49:44;;;;;;;20.15;10.27;;;;;;;14.49;nan;102002.06;5037140;28;20513;-86
2021/06/01 05:52:10;;;;;;;17.05;8.55;;;;;;;14.73;nan;102005.47;5054014;28;20035;-86
2021/06/01 05:54:37;;;;;;;16.02;8.82;;;;;;;14.75;nan;102001.44;5047029;28;20030;-86
2021/06/01 05:57:03;;;;;;;13.00;9.23;;;;;;;14.42;nan;102006.78;5049662;28;20039;-86
2021/06/01 05:59:28;;;;;;;17.77;8.65;;;;;;;14.71;nan;102002.97;5037522;28;20028;-86
2021/06/01 06:01:54;;;;;;;14.57;8.73;;;;;;;14.43;nan;101992.25;5061644;28;20035;-86
2021/06/01 06:04:20;;;;;;;12.18;8.25;;;;;;;14.77;nan;101991.22;5045900;28;20027;-86
2021/06/01 06:06:47;;;;;;;11.27;8.18;;;;;;;15.21;nan;101991.34;5057059;28;20059;-86
2021/06/01 06:09:13;;;;;;;13.73;8.63;;;;;;;15.40;nan;101998.06;5053433;28;20104;-86
2021/06/01 06:11:38;;;;;;;14.55;8.18;;;;;;;15.82;nan;102002.97;5040919;28;20394;-86
2021/06/01 06:14:04;;;;;;;11.77;7.82;;;;;;;16.00;nan;102001.81;5059968;28;20021;-86
2021/06/01 06:16:35;;;;;;;15.95;7.85;;;;;;;16.12;nan;101988.97;5034456;28;20029;-87
2021/06/01 06:19:00;;;;;;;13.20;7.93;;;;;;;15.97;nan;101995.00;5050807;28;20056;-88
2021/06/01 06:21:26;;;;;;;15.05;8.45;;;;;;;16.09;nan;101988.66;5059247;28;20057;-86
2021/06/01 06:23:53;;;;;;;13.38;6.88;;;;;;;16.24;nan;101983.41;5042633;28;20024;-86
2021/06/01 06:26:18;;;;;;;14.95;7.60;;;;;;;16.40;nan;101981.66;5053622;28;20150;-88
2021/06/01 06:28:44;;;;;;;9.38;7.20;;;;;;;16.43;nan;101976.56;5044283;28;20083;-86
2021/06/01 06:31:09;;;;;;;13.40;7.15;;;;;;;16.27;nan;101980.19;5046422;28;20108;-86
2021/06/01 06:33:35;;;;;;;10.30;7.25;;;;;;;16.67;nan;101974.34;5044686;28;20048;-87
2021/06/01 06:36:04;;;;;;;11.13;7.18;;;;;;;16.78;nan;101972.53;5058520;28;20465;-87
2021/06/01 06:38:29;;;;;;;11.07;6.82;;;;;;;16.72;nan;101969.00;5062382;28;20024;-87
2021/06/01 06:41:13;;;;;;;13.85;6.13;;;;;;;17.07;nan;101957.59;5040637;28;20028;-87
2021/06/01 06:43:47;;;;;;;10.33;5.73;;;;;;;17.17;nan;101967.63;5049144;28;20081;-87
2021/06/01 06:46:16;;;;;;;9.27;5.73;;;;;;;17.48;nan;101958.59;5047090;28;20302;-90
2021/06/01 06:48:44;;;;;;;9.40;6.00;;;;;;;17.75;nan;101955.72;5036423;28;20267;-91
2021/06/01 06:51:13;;;;;;;8.65;5.50;;;;;;;18.05;nan;101954.97;5053711;28;20017;-93
2021/06/01 06:53:56;;;;;;;9.43;5.60;;;;;;;18.67;nan;101955.84;5053975;28;20020;-89
2021/06/01 06:56:25;;;;;;;10.15;5.95;;;;;;;18.74;nan;101950.97;5054164;28;20367;-90
2021/06/01 06:58:51;;;;;;;10.70;5.65;;;;;;;18.90;nan;101941.72;5054090;28;20020;-91
2021/06/01 07:01:17;;;;;;;9.60;5.05;;;;;;;19.06;nan;101944.41;5054195;28;20390;-91
2021/06/01 07:03:43;;;;;;;8.43;5.60;;;;;;;19.04;nan;101944.69;5053819;28;20048;-91
2021/06/01 07:06:08;;;;;;;7.63;5.53;;;;;;;19.19;nan;101946.50;5053423;28;20051;-90
2021/06/01 07:08:34;;;;;;;8.57;5.32;;;;;;;19.22;nan;101935.13;5050084;28;20023;-86
2021/06/01 07:11:00;;;;;;;9.13;5.88;;;;;;;19.46;nan;101935.28;5044853;28;20074;-86
2021/06/01 07:13:56;;;;;;;10.57;5.75;;;;;;;19.43;nan;101923.06;5040598;28;20550;-87
2021/06/01 07:16:22;;;;;;;9.45;5.75;;;;;;;19.11;nan;101925.38;5042268;28;20047;-85
2021/06/01 07:18:47;;;;;;;8.68;4.95;;;;;;;19.07;nan;101924.28;5037319;28;20032;-85
2021/06/01 07:21:13;;;;;;;9.05;5.07;;;;;;;19.26;nan;101925.31;5039258;28;20060;-85
2021/06/01 07:23:40;;;;;;;10.45;6.10;;;;;;;19.58;nan;101925.75;5058169;28;20028;-85
2021/06/01 07:26:07;;;;;;;16.60;5.90;;;;;;;19.70;nan;101925.38;5041480;28;20035;-85
2021/06/01 07:28:33;;;;;;;9.02;6.40;;;;;;;19.68;nan;101927.59;5038331;28;20256;-86
2021/06/01 07:31:05;;;;;;;7.38;5.03;;;;;;;19.28;nan;101915.78;5038395;28;20096;-86
2021/06/01 07:33:32;;;;;;;11.38;5.95;;;;;;;19.36;nan;101908.94;5043732;28;20044;-86
2021/06/01 07:35:57;;;;;;;13.20;5.80;;;;;;;19.71;nan;101904.44;5043310;28;20169;-85
2021/06/01 07:38:23;;;;;;;8.70;5.72;;;;;;;20.28;nan;101906.47;5039625;28;20032;-90
2021/06/01 07:40:49;;;;;;;8.40;5.50;;;;;;;20.22;nan;101902.19;5042723;28;20024;-89
2021/06/01 07:43:14;;;;;;;6.78;5.00;;;;;;;20.46;nan;101911.25;5042468;28;20044;-87
2021/06/01 07:45:40;;;;;;;8.02;5.25;;;;;;;20.73;nan;101902.56;5042458;28;20063;-87
2021/06/01 07:48:06;;;;;;;8.55;5.03;;;;;;;20.89;nan;101900.50;5036801;28;20025;-87
2021/06/01 07:50:34;;;;;;;10.75;5.30;;;;;;;20.88;nan;101893.41;5042040;28;20033;-87
2021/06/01 07:53:00;;;;;;;7.65;4.88;;;;;;;20.83;nan;101895.41;5038631;28;20021;-85
2021/06/01 07:55:25;;;;;;;7.70;5.20;;;;;;;21.03;nan;101893.25;5041046;28;20025;-85
2021/06/01 07:57:51;;;;;;;7.47;5.00;;;;;;;20.17;nan;101911.22;5036319;28;20052;-85
2021/06/01 08:00:17;;;;;;;6.32;4.45;;;;;;;20.68;nan;101910.78;5040263;28;20119;-84
2021/06/01 08:02:42;;;;;;;9.80;5.18;;;;;;;20.70;nan;101913.22;5040459;28;20113;-85
2021/06/01 08:05:09;;;;;;;8.77;4.35;;;;;;;20.74;nan;101908.81;5054040;28;20053;-85
2021/06/01 08:07:35;;;;;;;7.88;4.65;;;;;;;20.24;nan;101905.44;5060132;28;20035;-86
2021/06/01 08:10:05;;;;;;;8.18;4.53;;;;;;;19.51;nan;101908.06;5045859;28;20478;-84
2021/06/01 08:12:30;;;;;;;6.47;4.28;;;;;;;19.29;nan;101905.72;5039485;28;20113;-85
2021/06/01 08:14:58;;;;;;;7.07;4.85;;;;;;;19.50;nan;101906.44;5047863;28;20116;-85
2021/06/01 08:17:23;;;;;;;9.57;4.60;;;;;;;20.18;nan;101912.84;5058696;28;20206;-85
2021/06/01 08:19:49;;;;;;;7.65;4.55;;;;;;;20.30;nan;101904.31;5039182;28;20028;-85
2021/06/01 08:22:30;;;;;;;8.32;5.13;;;;;;;20.39;nan;101908.03;5040611;28;20025;-91
2021/06/01 08:24:56;;;;;;;8.43;4.90;;;;;;;20.75;nan;101908.53;5053271;28;20029;-92
2021/06/01 08:27:22;;;;;;;9.45;5.05;;;;;;;20.74;nan;101906.91;5054745;28;20090;-90
2021/06/01 08:29:47;;;;;;;7.63;4.63;;;;;;;20.29;nan;101902.69;5034564;28;20037;-90
2021/06/01 08:32:13;;;;;;;8.30;4.75;;;;;;;20.48;nan;101905.53;5033032;28;20021;-85
2021/06/01 08:34:38;;;;;;;7.20;4.18;;;;;;;20.68;nan;101899.09;5061304;28;20070;-85
2021/06/01 08:37:04;;;;;;;10.60;4.78;;;;;;;20.64;nan;101904.28;5053425;28;20029;-85
2021/06/01 08:39:29;;;;;;;6.50;4.78;;;;;;;20.73;nan;101894.38;5044149;28;20474;-85
2021/06/01 08:41:56;;;;;;;10.48;4.93;;;;;;;20.83;nan;101909.81;5045171;28;20396;-85
2021/06/01 08:44:23;;;;;;;8.77;4.65;;;;;;;20.12;nan;101899.56;5038104;28;20093;-85
2021/06/01 08:46:51;;;;;;;6.35;4.32;;;;;;;19.80;nan;101890.00;5047473;28;20081;-85
2021/06/01 08:49:20;;;;;;;8.18;5.05;;;;;;;19.86;nan;101897.00;5053794;28;20028;-86
2021/06/01 08:51:47;;;;;;;7.70;4.70;;;;;;;19.93;nan;101899.44;5046456;28;20198;-87
2021/06/01 08:54:14;;;;;;;7.20;4.72;;;;;;;19.95;nan;101894.53;5048256;28;20182;-87
2021/06/01 08:56:40;;;;;;;8.35;4.63;;;;;;;20.45;nan;101889.75;5035810;28;20130;-88
2021/06/01 08:59:05;;;;;;;8.80;5.05;;;;;;;19.95;nan;101888.28;5039396;28;20055;-87
2021/06/01 09:01:31;;;;;;;7.97;4.78;;;;;;;20.30;nan;101887.16;5040650;28;20028;-88
2021/06/01 09:04:05;;;;;;;9.50;4.93;;;;;;;20.43;nan;101881.06;5064495;28;20078;-89
2021/06/01 09:06:46;;;;;;;13.18;4.57;;;;;;;20.53;nan;101886.44;5043296;28;20033;-89
2021/06/01 09:22:54;;;;;;;6.40;3.58;;;;;;;21.49;nan;101875.50;5069036;28;19919;-87
2021/06/01 09:25:47;;;;;;;7.13;3.88;;;;;;;20.72;nan;101873.72;5048343;28;20382;-87
2021/06/01 09:28:14;;;;;;;5.90;3.60;;;;;;;20.89;nan;101872.44;5044960;28;20027;-88
2021/06/01 09:30:46;;;;;;;6.22;4.03;;;;;;;20.70;nan;101869.66;5041156;28;20052;-88
2021/06/01 09:33:18;;;;;;;5.55;3.20;;;;;;;20.42;nan;101882.16;5052084;28;20112;-87
2021/06/01 09:35:52;;;;;;;5.60;3.90;;;;;;;20.72;nan;101873.72;5050629;28;20111;-87
2021/06/01 09:38:21;;;;;;;9.53;4.00;;;;;;;21.05;nan;101865.72;5050334;28;20154;-88
2021/06/01 09:40:49;;;;;;;8.30;4.00;;;;;;;21.11;nan;101861.81;5037292;28;20040;-91
2021/06/01 09:43:16;;;;;;;6.50;4.10;;;;;;;21.21;nan;101864.41;5037971;28;20031;-85
2021/06/01 09:45:43;;;;;;;7.20;4.28;;;;;;;21.46;nan;101862.47;5044092;28;20383;-85
2021/06/01 09:48:10;;;;;;;8.18;3.92;;;;;;;21.53;nan;101857.44;5044058;28;20108;-85
2021/06/01 09:50:54;;;;;;;5.97;4.07;;;;;;;20.95;nan;101853.00;5042687;28;20024;-85
2021/06/01 09:55:50;;;;;;;6.05;3.20;;;;;;;20.59;nan;101858.03;5065361;28;20031;-86
2021/06/01 09:58:25;;;;;;;5.35;3.53;;;;;;;20.65;nan;101861.53;5052532;28;20026;-86
2021/06/01 10:00:50;;;;;;;4.57;3.13;;;;;;;20.61;nan;101869.47;5053275;28;20110;-85
2021/06/01 10:03:26;;;;;;;5.30;3.20;;;;;;;20.53;nan;101864.66;5071626;28;20552;-88
2021/06/01 10:05:55;;;;;;;8.55;3.60;;;;;;;20.81;nan;101860.25;5057695;28;20025;-90
2021/06/01 10:08:48;;;;;;;7.78;3.70;;;;;;;20.94;nan;101864.19;5060558;28;20040;-91
2021/06/01 10:11:18;;;;;;;4.85;3.60;;;;;;;20.78;nan;101850.75;5057585;28;20028;-90
2021/06/01 10:13:44;;;;;;;4.53;3.10;;;;;;;21.20;nan;101862.78;5037304;28;20024;-90
2021/06/01 10:16:12;;;;;;;4.88;3.47;;;;;;;21.42;nan;101862.25;5037833;28;20032;-89
2021/06/01 10:18:42;;;;;;;7.13;3.38;;;;;;;21.46;nan;101859.75;5038113;28;20056;-90
2021/06/01 10:21:21;;;;;;;5.82;3.60;;;;;;;20.93;nan;101854.41;5037534;28;20105;-90
2021/06/01 10:23:52;;;;;;;5.60;2.95;;;;;;;21.31;nan;101855.31;5040439;28;20120;-90
2021/06/01 10:26:18;;;;;;;5.63;3.40;;;;;;;21.09;nan;101866.75;5035647;28;20051;-87
2021/06/01 10:28:47;;;;;;;6.20;3.40;;;;;;;20.79;nan;101855.09;5042396;28;20463;-85
2021/06/01 10:31:18;;;;;;;5.30;3.28;;;;;;;21.42;nan;101864.97;5038648;28;20027;-87
2021/06/01 10:33:47;;;;;;;4.93;3.55;;;;;;;21.34;nan;101865.63;5058178;28;20029;-88
2021/06/01 10:50:43;;;;;;;5.43;3.67;;;;;;;21.65;nan;101868.72;5059942;28;20043;-85
2021/06/01 10:53:14;;;;;;;6.60;3.92;;;;;;;21.75;nan;101863.16;5041919;28;20102;-84
2021/06/01 10:55:49;;;;;;;8.90;4.38;;;;;;;21.93;nan;101865.03;5040093;28;20063;-85
2021/06/01 10:58:16;;;;;;;5.90;4.05;;;;;;;22.02;nan;101857.78;5043940;28;20387;-88
2021/06/01 11:03:16;;;;;;;9.38;4.28;;;;;;;21.84;nan;101853.16;5060337;28;20059;-88
2021/06/01 11:05:54;;;;;;;9.38;4.50;;;;;;;21.53;nan;101849.28;5043739;28;20048;-88
2021/06/01 11:08:42;;;;;;;7.22;4.00;;;;;;;21.52;nan;101855.84;5041522;28;20033;-86
2021/06/01 11:11:23;;;;;;;7.43;4.75;;;;;;;21.30;nan;101850.97;5056401;28;20025;-88
2021/06/01 11:13:56;;;;;;;8.25;5.05;;;;;;;21.09;nan;101851.19;5053713;28;20032;-84
2021/06/01 11:16:23;;;;;;;8.32;5.07;;;;;;;21.16;nan;101853.56;5057103;28;20605;-85
2021/06/01 11:19:02;;;;;;;11.07;5.10;;;;;;;20.88;nan;101846.31;5043543;28;20120;-84
2021/06/01 11:24:09;;;;;;;7.75;4.82;;;;;;;20.83;nan;101846.38;5054630;28;20074;-88
2021/06/01 11:32:57;;;;;;;7.05;4.82;;;;;;;21.02;nan;101836.31;5055147;28;20394;-88
2021/06/01 11:35:24;;;;;;;9.10;5.70;;;;;;;21.30;nan;101835.41;5046824;28;20031;-88
2021/06/01 11:39:01;;;;;;;8.20;5.53;;;;;;;21.58;nan;101835.59;5042744;28;20610;-88
2021/06/01 11:43:39;;;;;;;6.55;4.95;;;;;;;21.72;nan;101830.97;5055559;28;20545;-83
2021/06/01 11:51:25;;;;;;;10.48;4.75;;;;;;;21.79;nan;101839.63;5051120;28;20021;-83
2021/06/01 11:54:13;;;;;;;6.97;4.35;;;;;;;21.60;nan;101833.38;5037882;28;20032;-83
2021/06/01 12:02:12;;;;;;;7.40;3.67;;;;;;;21.08;nan;101832.41;5053888;28;20036;-87
2021/06/01 12:05:13;;;;;;;9.50;3.80;;;;;;;21.08;nan;101829.69;5045984;28;20109;-87
2021/06/01 12:19:07;;;;;;;;;;;;;;;20.59;nan;101825.38;5051769;28;20047;-83
2021/06/01 12:21:38;;;;;;;5.80;3.78;;;;;;;20.63;nan;101828.31;5033173;28;20405;-84
2021/06/01 12:24:17;;;;;;;5.60;4.13;;;;;;;20.19;nan;101827.38;5030816;28;20038;-85
2021/06/01 12:32:08;;;;;;;7.82;4.50;;;;;;;19.88;nan;101826.00;5049168;28;20167;-87
2021/06/01 13:30:36;;;;;;;11.95;6.72;;;;;;;21.39;nan;101806.41;5064700;28;20274;-88
2021/06/01 13:39:05;;;;;;;8.95;6.65;;;;;;;21.58;nan;101805.59;5057813;28;20040;-83
2021/06/01 13:46:52;;;;;;;10.27;7.53;;;;;;;21.41;nan;101801.47;5056556;28;20629;-83
2021/06/01 13:49:27;;;;;;;13.60;7.68;;;;;;;21.19;nan;101801.22;5038956;28;20028;-85
2021/06/01 13:57:11;;;;;;;9.60;7.60;;;;;;;21.05;nan;101811.22;5050762;28;20494;-84
2021/06/01 13:59:55;;;;;;;11.00;7.40;;;;;;;20.52;nan;101803.94;5041292;28;20468;-84
2021/06/01 14:21:34;;;;;;;10.70;6.20;;;;;;;22.12;nan;101812.38;5046587;28;20042;-86
2021/06/01 14:35:49;;;;;;;12.88;5.60;;;;;;;26.89;nan;101803.13;5048810;28;20060;-86
2021/06/01 14:54:50;;;;;;;10.80;5.22;;;;;;;30.58;nan;101791.25;5051687;28;20050;-87
2021/06/01 16:13:08;;;;;;;1.10;1.00;;;;;;;23.15;nan;101786.25;5050007;28;20038;-88
2021/06/01 16:29:44;;;;;;;3.58;0.77;;;;;;;22.23;nan;101781.03;5045693;28;20505;-87
2021/06/01 16:32:57;;;;;;;3.90;1.00;;;;;;;21.64;nan;101780.66;5046383;28;20523;-87
2021/06/01 17:03:31;;;;;;;3.25;0.93;;;;;;;20.14;nan;101804.84;5052111;28;20553;-88
2021/06/01 17:06:05;;;;;;;4.75;1.23;;;;;;;20.03;nan;101814.19;5044757;28;20086;-88
2021/06/01 17:11:14;;;;;;;;;;;;;;;19.56;nan;101816.44;5063788;28;20048;-87